createdAt,value
2018-04-20T00:02:18.717Z,3.57
2018-04-20T00:04:44.806Z,3.77
2018-04-20T00:07:11.094Z,3.57
2018-04-20T00:09:37.185Z,3.23
2018-04-20T00:12:03.240Z,3.87
2018-04-20T00:14:30.144Z,3.77
2018-04-20T00:16:56.216Z,3.43
2018-04-20T00:19:22.385Z,4.20
2018-04-20T00:21:49.191Z,3.63
2018-04-20T00:24:15.345Z,3.90
2018-04-20T00:26:41.719Z,3.70
2018-04-20T00:29:07.791Z,3.43
2018-04-20T00:31:33.885Z,3.40
2018-04-20T00:34:00.774Z,3.47
2018-04-20T00:36:26.894Z,4.37
2018-04-20T00:38:52.968Z,3.40
2018-04-20T00:41:19.584Z,4.07
2018-04-20T00:43:45.688Z,3.60
2018-04-20T00:46:15.908Z,3.60
2018-04-20T00:48:42.049Z,3.77
2018-04-20T00:51:08.859Z,3.57
2018-04-20T00:53:47.560Z,3.43
2018-04-20T00:56:13.733Z,3.97
2018-04-20T00:58:39.856Z,3.70
2018-04-20T01:01:05.953Z,3.70
2018-04-20T01:03:31.999Z,3.47
2018-04-20T01:05:58.108Z,3.70
2018-04-20T01:08:24.928Z,3.90
2018-04-20T01:10:50.983Z,3.60
2018-04-20T01:13:18.076Z,4.00
2018-04-20T01:15:45.000Z,4.10
2018-04-20T01:18:11.998Z,3.80
2018-04-20T01:20:38.080Z,3.70
2018-04-20T01:23:04.124Z,3.73
2018-04-20T01:25:30.400Z,3.77
2018-04-20T01:27:56.490Z,3.53
2018-04-20T01:30:22.540Z,3.57
2018-04-20T01:32:48.624Z,4.20
2018-04-20T01:35:14.834Z,4.00
2018-04-20T01:37:41.080Z,3.80
2018-04-20T01:40:07.285Z,3.83
2018-04-20T01:42:33.344Z,3.90
2018-04-20T01:44:59.485Z,3.70
2018-04-20T01:47:25.613Z,3.10
2018-04-20T01:49:51.664Z,3.73
2018-04-20T01:52:17.697Z,3.87
2018-04-20T01:54:44.249Z,3.60
2018-04-20T01:57:11.010Z,4.40
2018-04-20T01:59:37.940Z,4.20
2018-04-20T02:02:03.996Z,4.47
2018-04-20T02:04:30.089Z,4.20
2018-04-20T02:06:56.171Z,4.30
2018-04-20T02:09:22.218Z,3.93
2018-04-20T02:11:48.287Z,3.90
2018-04-20T02:14:14.469Z,3.93
2018-04-20T02:16:40.667Z,4.10
2018-04-20T02:19:06.819Z,3.90
2018-04-20T02:21:32.931Z,4.00
2018-04-20T02:23:59.861Z,4.23
2018-04-20T02:26:25.937Z,4.00
2018-04-20T02:28:51.976Z,4.40
2018-04-20T02:31:18.020Z,3.80
2018-04-20T02:33:44.204Z,4.47
2018-04-20T02:36:11.220Z,4.57
2018-04-20T02:38:37.251Z,4.37
2018-04-20T02:41:03.304Z,3.80
2018-04-20T02:43:29.378Z,4.33
2018-04-20T02:45:55.428Z,4.47
2018-04-20T02:48:22.241Z,4.53
2018-04-20T02:50:48.312Z,4.67
2018-04-20T02:53:14.421Z,4.70
2018-04-20T02:55:40.712Z,4.70
2018-04-20T02:58:06.884Z,4.77
2018-04-20T03:00:32.923Z,4.70
2018-04-20T03:02:59.068Z,5.30
2018-04-20T03:05:25.141Z,4.93
2018-04-20T03:07:51.944Z,4.60
2018-04-20T03:10:18.332Z,5.70
2018-04-20T03:12:44.422Z,5.10
2018-04-20T03:15:10.477Z,4.93
2018-04-20T03:17:36.536Z,4.70
2018-04-20T03:20:02.586Z,4.83
2018-04-20T03:22:29.516Z,4.70
2018-04-20T03:24:56.328Z,4.73
2018-04-20T03:27:22.357Z,4.57
2018-04-20T03:29:48.397Z,4.60
2018-04-20T03:32:14.471Z,4.70
2018-04-20T03:34:40.677Z,4.83
2018-04-20T03:37:07.852Z,4.63
2018-04-20T03:39:33.887Z,4.57
2018-04-20T03:41:59.961Z,4.53
2018-04-20T03:44:26.764Z,4.63
2018-04-20T03:46:52.812Z,5.10
2018-04-20T03:49:18.885Z,5.10
2018-04-20T03:51:44.940Z,4.67
2018-04-20T03:54:11.763Z,5.23
2018-04-20T03:56:37.818Z,4.90
2018-04-20T03:59:03.910Z,4.40
2018-04-20T04:01:29.978Z,5.10
2018-04-20T04:03:56.769Z,5.07
2018-04-20T04:06:22.812Z,5.50
2018-04-20T04:08:48.836Z,4.90
2018-04-20T04:11:15.718Z,5.07
2018-04-20T04:13:41.823Z,5.00
2018-04-20T04:16:07.880Z,5.47
2018-04-20T04:18:47.300Z,4.67
2018-04-20T04:24:28.919Z,5.17
2018-04-20T04:27:33.892Z,4.53
2018-04-20T04:30:00.500Z,5.20
2018-04-20T04:32:26.777Z,5.60
2018-04-20T04:34:53.042Z,5.50
2018-04-20T04:37:21.899Z,5.27
2018-04-20T04:39:48.187Z,4.80
2018-04-20T04:42:14.576Z,4.90
2018-04-20T04:44:40.895Z,5.07
2018-04-20T04:47:07.380Z,5.17
2018-04-20T04:49:33.607Z,4.40
2018-04-20T04:51:59.938Z,4.60
2018-04-20T04:54:26.259Z,5.23
2018-04-20T04:56:53.251Z,6.50
2018-04-20T04:59:19.500Z,5.60
2018-04-20T05:01:45.817Z,4.23
2018-04-20T05:04:12.141Z,6.87
2018-04-20T05:06:38.415Z,7.87
2018-04-20T05:09:04.699Z,8.93
2018-04-20T05:11:30.891Z,11.50
2018-04-20T05:13:57.136Z,13.87
2018-04-20T05:16:23.348Z,14.57
2018-04-20T05:18:49.564Z,13.83
2018-04-20T05:21:15.861Z,14.70
2018-04-20T05:23:42.377Z,15.33
2018-04-20T05:26:08.752Z,14.40
2018-04-20T05:28:37.663Z,15.20
2018-04-20T05:31:05.046Z,14.77
2018-04-20T05:33:31.299Z,14.80
2018-04-20T05:35:57.561Z,14.53
2018-04-20T05:38:24.604Z,14.00
2018-04-20T05:40:50.879Z,12.90
2018-04-20T05:43:17.184Z,14.97
2018-04-20T05:45:43.605Z,13.10
2018-04-20T05:48:10.850Z,13.20
2018-04-20T05:50:37.870Z,12.10
2018-04-20T05:53:04.108Z,12.93
2018-04-20T05:55:30.436Z,11.90
2018-04-20T05:57:56.800Z,12.27
2018-04-20T06:00:23.781Z,13.60
2018-04-20T06:02:50.040Z,13.80
2018-04-20T06:05:17.193Z,11.30
2018-04-20T06:07:44.347Z,12.20
2018-04-20T06:10:10.853Z,12.40
2018-04-20T06:12:37.140Z,12.90
2018-04-20T06:15:03.404Z,12.23
2018-04-20T06:17:30.412Z,11.80
2018-04-20T06:19:57.186Z,12.63
2018-04-20T06:22:23.437Z,11.83
2018-04-20T06:24:49.712Z,12.30
2018-04-20T06:27:17.249Z,12.60
2018-04-20T06:29:43.582Z,11.47
2018-04-20T06:32:09.908Z,10.37
2018-04-20T06:34:36.156Z,9.50
2018-04-20T06:37:02.404Z,10.93
2018-04-20T06:39:28.624Z,10.30
2018-04-20T06:41:54.985Z,9.50
2018-04-20T06:44:21.252Z,8.60
2018-04-20T06:46:47.826Z,9.80
2018-04-20T06:49:14.908Z,9.40
2018-04-20T06:51:41.269Z,8.90
2018-04-20T06:54:07.657Z,9.83
2018-04-20T06:56:34.636Z,9.60
2018-04-20T06:59:03.832Z,6.40
2018-04-20T07:01:30.198Z,5.87
2018-04-20T07:03:56.491Z,5.10
2018-04-20T07:06:22.732Z,3.80
2018-04-20T07:08:48.977Z,4.40
2018-04-20T07:11:16.047Z,4.47
2018-04-20T07:13:42.374Z,4.27
2018-04-20T07:16:08.672Z,3.83
2018-04-20T07:18:35.633Z,4.00
2018-04-20T07:21:01.996Z,4.17
2018-04-20T07:23:28.283Z,3.77
2018-04-20T07:25:55.308Z,4.20
2018-04-20T07:28:21.533Z,3.93
2018-04-20T07:30:48.077Z,4.20
2018-04-20T07:33:14.414Z,4.43
2018-04-20T07:35:40.714Z,4.10
2018-04-20T07:38:07.712Z,4.57
2018-04-20T07:40:34.835Z,3.93
2018-04-20T07:43:01.541Z,4.30
2018-04-20T07:45:27.843Z,4.10
2018-04-20T07:47:54.791Z,4.93
2018-04-20T07:50:21.752Z,5.07
2018-04-20T07:52:48.193Z,4.17
2018-04-20T07:55:18.568Z,4.63
2018-04-20T07:57:44.889Z,4.23
2018-04-20T08:00:11.236Z,3.40
2018-04-20T08:02:37.513Z,4.80
2018-04-20T08:05:03.737Z,3.93
2018-04-20T08:07:29.954Z,4.20
2018-04-20T08:09:56.224Z,4.50
2018-04-20T08:12:24.525Z,3.90
2018-04-20T08:14:50.851Z,4.37
2018-04-20T08:17:17.249Z,4.37
2018-04-20T08:19:44.397Z,4.20
2018-04-20T08:22:11.439Z,5.47
2018-04-20T08:24:37.693Z,4.80
2018-04-20T08:27:03.903Z,4.90
2018-04-20T08:29:35.315Z,4.33
2018-04-20T08:32:01.616Z,4.80
2018-04-20T08:34:27.848Z,5.07
2018-04-20T08:36:54.102Z,4.70
2018-04-20T08:39:20.329Z,4.90
2018-04-20T08:41:46.685Z,5.33
2018-04-20T08:44:13.944Z,6.17
2018-04-20T08:46:44.370Z,4.97
2018-04-20T08:49:10.666Z,5.17
2018-04-20T08:51:37.031Z,4.60
2018-04-20T08:54:03.958Z,5.27
2018-04-20T08:56:31.116Z,5.83
2018-04-20T08:58:57.432Z,6.00
2018-04-20T09:01:25.843Z,6.63
2018-04-20T09:03:52.102Z,6.50
2018-04-20T09:06:18.303Z,6.23
2018-04-20T09:08:45.310Z,6.57
2018-04-20T09:11:11.736Z,7.00
2018-04-20T09:13:38.001Z,8.63
2018-04-20T09:16:04.220Z,7.83
2018-04-20T09:18:32.880Z,8.40
2018-04-20T09:20:59.193Z,6.60
2018-04-20T09:23:25.475Z,6.83
2018-04-20T09:25:51.710Z,7.40
2018-04-20T09:28:18.665Z,6.20
2018-04-20T09:30:45.676Z,5.37
2018-04-20T09:33:13.499Z,5.57
2018-04-20T09:35:39.760Z,5.37
2018-04-20T09:38:07.178Z,5.27
2018-04-20T09:40:33.566Z,4.80
2018-04-20T09:42:59.919Z,5.30
2018-04-20T09:45:26.160Z,4.50
2018-04-20T09:47:52.401Z,4.60
2018-04-20T09:50:18.656Z,4.80
2018-04-20T09:52:45.711Z,4.00
2018-04-20T09:55:13.849Z,4.00
2018-04-20T09:57:40.161Z,4.10
2018-04-20T10:00:06.423Z,4.00
2018-04-20T10:02:32.819Z,4.03
2018-04-20T10:05:00.663Z,3.77
2018-04-20T10:07:26.932Z,4.00
2018-04-20T10:09:53.232Z,4.63
2018-04-20T10:12:21.569Z,4.33
2018-04-20T10:14:48.056Z,4.47
2018-04-20T10:17:14.410Z,4.73
2018-04-20T10:19:40.753Z,4.90
2018-04-20T10:22:07.132Z,5.13
2018-04-20T10:24:33.436Z,4.77
2018-04-20T10:26:59.688Z,4.70
2018-04-20T10:29:28.005Z,5.27
2018-04-20T10:31:54.271Z,4.93
2018-04-20T10:34:20.559Z,5.90
2018-04-20T10:36:47.024Z,5.50
2018-04-20T10:39:13.361Z,5.97
2018-04-20T10:41:40.447Z,5.50
2018-04-20T10:44:07.608Z,4.90
2018-04-20T10:46:38.442Z,5.00
2018-04-20T10:49:04.549Z,4.23
2018-04-20T10:51:30.602Z,4.17
2018-04-20T10:53:56.653Z,3.50
2018-04-20T10:56:22.723Z,4.10
2018-04-20T10:58:49.500Z,4.10
2018-04-20T11:01:15.634Z,4.47
2018-04-20T11:03:41.771Z,3.93
2018-04-20T11:06:13.091Z,4.73
2018-04-20T11:08:39.252Z,3.63
2018-04-20T11:11:06.045Z,4.00
2018-04-20T11:13:32.104Z,3.93
2018-04-20T11:15:58.177Z,3.93
2018-04-20T11:18:24.981Z,3.93
2018-04-20T11:20:51.084Z,4.13
2018-04-20T11:23:17.249Z,4.07
2018-04-20T11:25:48.489Z,4.00
2018-04-20T11:28:14.648Z,3.60
2018-04-20T11:30:40.786Z,3.97
2018-04-20T11:33:07.724Z,3.50
2018-04-20T11:35:34.668Z,3.53
2018-04-20T11:38:00.884Z,4.10
2018-04-20T11:40:26.985Z,3.30
2018-04-20T11:42:57.620Z,3.37
2018-04-20T11:45:23.670Z,4.07
2018-04-20T11:47:49.752Z,3.93
2018-04-20T11:50:15.843Z,3.57
2018-04-20T11:52:42.144Z,3.30
2018-04-20T11:55:08.217Z,4.23
2018-04-20T11:57:34.337Z,3.83
2018-04-20T12:00:00.520Z,3.43
2018-04-20T12:02:28.704Z,3.43
2018-04-20T12:04:54.770Z,3.37
2018-04-20T12:07:20.824Z,3.20
2018-04-20T12:09:47.676Z,3.93
2018-04-20T12:12:13.958Z,3.63
2018-04-20T12:14:40.019Z,3.20
2018-04-20T12:17:06.126Z,2.93
2018-04-20T12:19:36.795Z,2.93
2018-04-20T12:22:02.922Z,3.27
2018-04-20T12:24:28.996Z,2.93
2018-04-20T12:26:55.079Z,2.83
2018-04-20T12:29:21.136Z,2.77
2018-04-20T12:31:48.040Z,2.70
2018-04-20T12:34:14.457Z,3.10
2018-04-20T12:36:40.576Z,3.03
2018-04-20T12:39:09.066Z,3.10
2018-04-20T12:41:36.812Z,3.53
2018-04-20T12:44:03.627Z,3.03
2018-04-20T12:46:29.672Z,3.00
2018-04-20T12:48:55.832Z,3.13
2018-04-20T12:51:22.707Z,3.40
2018-04-20T12:53:48.804Z,3.30
2018-04-20T12:56:18.308Z,3.30
2018-04-20T12:58:45.372Z,3.37
2018-04-20T13:01:11.896Z,3.63
2018-04-20T13:03:38.748Z,3.20
2018-04-20T13:06:04.834Z,3.20
2018-04-20T13:08:30.943Z,3.53
2018-04-20T13:11:01.692Z,2.97
2018-04-20T13:13:27.796Z,2.97
2018-04-20T13:15:53.882Z,3.00
2018-04-20T13:18:20.056Z,3.83
2018-04-20T13:20:46.347Z,4.00
2018-04-20T13:23:12.858Z,4.30
2018-04-20T13:25:38.965Z,4.27
2018-04-20T13:28:08.243Z,3.23
2018-04-20T13:30:36.464Z,3.30
2018-04-20T13:33:02.579Z,3.30
2018-04-20T13:35:28.758Z,3.50
2018-04-20T13:37:54.876Z,2.80
2018-04-20T13:40:20.909Z,3.37
2018-04-20T13:42:46.995Z,3.40
2018-04-20T13:45:13.295Z,3.30
2018-04-20T13:47:43.761Z,3.17
2018-04-20T13:50:09.844Z,3.07
2018-04-20T13:52:35.900Z,3.40
2018-04-20T13:55:02.114Z,4.27
2018-04-20T13:57:28.197Z,4.27
2018-04-20T13:59:54.255Z,3.40
2018-04-20T14:02:21.048Z,3.60
2018-04-20T14:04:48.763Z,3.80
2018-04-20T14:07:16.009Z,3.90
2018-04-20T14:09:42.196Z,3.70
2018-04-20T14:12:08.267Z,3.60
2018-04-20T14:14:34.354Z,3.80
2018-04-20T14:17:00.491Z,3.53
2018-04-20T14:19:27.284Z,3.93
2018-04-20T14:21:53.325Z,3.83
2018-04-20T14:24:24.423Z,3.27
2018-04-20T14:26:50.465Z,3.20
2018-04-20T14:29:16.592Z,3.60
2018-04-20T14:31:42.751Z,3.93
2018-04-20T14:34:09.636Z,4.03
2018-04-20T14:36:35.685Z,3.60
2018-04-20T14:39:01.876Z,3.57
2018-04-20T14:41:27.929Z,3.53
2018-04-20T14:43:53.992Z,3.80
2018-04-20T14:46:24.485Z,3.87
2018-04-20T14:48:50.601Z,5.77
2018-04-20T14:51:16.748Z,5.23
2018-04-20T14:53:42.868Z,4.30
2018-04-20T14:56:08.935Z,4.97
2018-04-20T14:58:35.085Z,4.37
2018-04-20T15:01:01.221Z,4.13
2018-04-20T15:03:27.288Z,4.13
2018-04-20T15:05:57.049Z,4.90
2018-04-20T15:08:25.200Z,5.53
2018-04-20T15:10:52.034Z,5.90
2018-04-20T15:13:18.860Z,4.50
2018-04-20T15:15:45.754Z,4.60
2018-04-20T15:18:11.886Z,4.60
2018-04-20T15:20:41.811Z,3.37
2018-04-20T15:23:15.431Z,3.27
2018-04-20T15:25:42.713Z,5.23
2018-04-20T15:28:09.052Z,4.90
2018-04-20T15:30:35.292Z,5.00
2018-04-20T15:33:07.896Z,3.50
2018-04-20T15:35:34.365Z,26.40
2018-04-20T15:38:00.646Z,6.83
2018-04-20T15:40:27.009Z,21.47
2018-04-20T15:42:53.289Z,6.17
2018-04-20T15:45:19.612Z,21.80
2018-04-20T15:47:46.028Z,6.53
2018-04-20T15:50:14.364Z,9.23
2018-04-20T15:52:40.664Z,5.40
2018-04-20T15:55:06.896Z,5.50
2018-04-20T15:57:33.216Z,5.60
2018-04-20T15:59:59.554Z,5.77
2018-04-20T16:02:26.704Z,5.30
2018-04-20T16:04:53.030Z,5.20
2018-04-20T16:07:19.306Z,6.80
2018-04-20T16:09:45.698Z,8.67
2018-04-20T16:12:23.001Z,14.67
2018-04-20T16:14:49.317Z,6.93
2018-04-20T16:17:19.254Z,7.33
2018-04-20T16:19:47.516Z,5.70
2018-04-20T16:22:18.753Z,7.00
2018-04-20T16:24:45.164Z,5.90
2018-04-20T16:27:12.251Z,5.57
2018-04-20T16:29:39.040Z,4.83
2018-04-20T16:32:05.272Z,5.10
2018-04-20T16:34:31.554Z,4.90
2018-04-20T16:36:57.924Z,5.13
2018-04-20T16:39:24.945Z,4.60
2018-04-20T16:41:51.157Z,5.13
2018-04-20T16:44:18.205Z,4.93
2018-04-20T16:46:44.627Z,5.33
2018-04-20T16:49:10.982Z,8.63
2018-04-20T16:51:37.317Z,30.27
2018-04-20T16:54:03.660Z,9.93
2018-04-20T16:56:29.972Z,7.77
2018-04-20T16:58:56.987Z,7.57
2018-04-20T17:01:23.288Z,6.27
2018-04-20T17:03:54.892Z,5.67
2018-04-20T17:06:21.842Z,6.67
2018-04-20T17:08:48.836Z,6.00
2018-04-20T17:11:15.402Z,6.57
2018-04-20T17:13:41.773Z,5.63
2018-04-20T17:16:08.187Z,5.10
2018-04-20T17:18:34.468Z,6.10
2018-04-20T17:21:04.625Z,5.73
2018-04-20T17:23:30.903Z,5.90
2018-04-20T17:25:57.859Z,5.70
2018-04-20T17:28:24.172Z,6.00
2018-04-20T17:30:50.597Z,6.10
2018-04-20T17:33:16.989Z,6.07
2018-04-20T17:35:43.966Z,6.00
2018-04-20T17:38:14.713Z,6.13
2018-04-20T17:40:41.798Z,5.73
2018-04-20T17:43:08.113Z,6.07
2018-04-20T17:45:34.392Z,6.80
2018-04-20T17:48:01.494Z,7.17
2018-04-20T17:50:27.776Z,7.33
2018-04-20T17:52:54.040Z,6.07
2018-04-20T17:55:20.297Z,6.63
2018-04-20T17:57:46.653Z,5.50
2018-04-20T18:00:13.809Z,6.27
2018-04-20T18:02:41.370Z,5.90
2018-04-20T18:05:07.706Z,6.37
2018-04-20T18:07:33.962Z,5.53
2018-04-20T18:10:01.169Z,6.60
2018-04-20T18:12:27.419Z,6.40
2018-04-20T18:14:53.746Z,6.90
2018-04-20T18:17:20.013Z,7.40
2018-04-20T18:19:46.584Z,6.10
2018-04-20T18:22:20.870Z,7.97
2018-04-20T18:24:50.463Z,7.03
2018-04-20T18:27:17.727Z,6.57
2018-04-20T18:29:44.094Z,7.00
2018-04-20T18:32:14.596Z,39.83
2018-04-20T18:34:41.532Z,14.30
2018-04-20T18:37:07.948Z,18.73
2018-04-20T18:39:34.191Z,9.40
2018-04-20T18:42:00.492Z,10.60
2018-04-20T18:44:26.709Z,11.30
2018-04-20T18:46:53.698Z,8.73
2018-04-20T18:49:25.420Z,8.73
2018-04-20T18:51:51.636Z,8.93
2018-04-20T18:54:17.756Z,8.67
2018-04-20T18:56:43.926Z,11.27
2018-04-20T18:59:09.986Z,14.77
2018-04-20T19:01:36.033Z,16.63
2018-04-20T19:04:02.178Z,17.23
2018-04-20T19:06:29.622Z,16.10
2018-04-20T19:08:55.688Z,14.60
2018-04-20T19:11:21.734Z,14.40
2018-04-20T19:13:47.768Z,12.57
2018-04-20T19:16:13.949Z,12.97
2018-04-20T19:18:40.016Z,13.50
2018-04-20T19:21:06.061Z,9.93
2018-04-20T19:23:32.112Z,10.40
2018-04-20T19:26:02.189Z,9.97
2018-04-20T19:28:28.412Z,9.07
2018-04-20T19:30:55.217Z,9.60
2018-04-20T19:33:21.248Z,8.40
2018-04-20T19:35:51.671Z,10.67
2018-04-20T19:38:17.724Z,9.80
2018-04-20T19:40:43.860Z,10.43
2018-04-20T19:43:09.915Z,8.93
2018-04-20T19:45:37.344Z,10.20
2018-04-20T19:48:03.507Z,9.03
2018-04-20T19:50:29.604Z,8.50
2018-04-20T19:52:57.697Z,9.87
2018-04-20T19:55:29.657Z,9.97
2018-04-20T19:57:56.193Z,10.67
2018-04-20T20:00:23.959Z,11.57
2018-04-20T20:02:52.247Z,10.00
2018-04-20T20:05:19.054Z,14.70
2018-04-20T20:07:45.271Z,11.70
2018-04-20T20:10:11.527Z,27.03
2018-04-20T20:15:13.084Z,18.60
2018-04-20T20:17:39.312Z,14.03
2018-04-20T20:20:05.376Z,11.93
2018-04-20T20:22:33.811Z,11.90
2018-04-20T20:25:03.480Z,11.50
2018-04-20T20:27:33.402Z,12.93
2018-04-20T20:30:00.391Z,12.80
2018-04-20T20:32:26.451Z,12.20
2018-04-20T20:34:53.243Z,12.77
2018-04-20T20:37:19.296Z,13.47
2018-04-20T20:39:50.650Z,14.63
2018-04-20T20:42:16.806Z,13.97
2018-04-20T20:44:43.034Z,13.93
2018-04-20T20:47:09.288Z,13.03
2018-04-20T20:49:35.431Z,14.40
2018-04-20T20:52:06.923Z,13.97
2018-04-20T20:54:38.464Z,12.70
2018-04-20T20:57:04.591Z,13.93
2018-04-20T20:59:30.784Z,13.63
2018-04-20T21:01:56.847Z,13.73
2018-04-20T21:04:22.926Z,13.27
2018-04-20T21:06:49.109Z,14.37
2018-04-20T21:09:15.660Z,15.27
2018-04-20T21:11:42.680Z,15.00
2018-04-20T21:14:09.541Z,13.07
2018-04-20T21:16:36.380Z,15.70
2018-04-20T21:19:02.505Z,14.40
2018-04-20T21:21:29.406Z,14.83
2018-04-20T21:23:56.310Z,14.90
2018-04-20T21:26:22.360Z,14.60
2018-04-20T21:28:48.504Z,15.50
2018-04-20T21:31:14.603Z,14.77
2018-04-20T21:33:40.740Z,15.87
2018-04-20T21:36:08.350Z,15.30
2018-04-20T21:38:35.166Z,15.30
2018-04-20T21:41:02.057Z,15.53
2018-04-20T21:43:28.105Z,14.93
2018-04-20T21:45:54.160Z,15.37
2018-04-20T21:48:23.177Z,16.87
2018-04-20T21:50:49.540Z,15.87
2018-04-20T21:53:16.500Z,16.60
2018-04-20T21:55:42.780Z,16.10
2018-04-20T21:58:08.892Z,16.83
2018-04-20T22:00:35.675Z,16.90
2018-04-20T22:03:02.453Z,21.43
2018-04-20T22:05:29.300Z,17.33
2018-04-20T22:07:55.385Z,17.23
2018-04-20T22:10:21.453Z,17.57
2018-04-20T22:12:47.564Z,26.57
2018-04-20T22:15:13.814Z,18.63
2018-04-20T22:17:39.876Z,16.73
2018-04-20T22:20:05.917Z,17.10
2018-04-20T22:22:31.960Z,18.23
2018-04-20T22:24:58.037Z,17.87
2018-04-20T22:27:24.094Z,22.70
2018-04-20T22:29:51.980Z,17.30
2018-04-20T22:32:18.027Z,17.80
2018-04-20T22:34:44.148Z,18.93
2018-04-20T22:40:05.849Z,17.50
2018-04-20T22:42:32.014Z,16.73
2018-04-20T22:44:58.217Z,18.23
2018-04-20T22:47:24.268Z,18.07
2018-04-20T22:49:51.386Z,19.50
2018-04-20T22:52:17.420Z,19.30
2018-04-20T22:54:44.908Z,18.50
2018-04-20T22:57:10.956Z,18.40
2018-04-20T22:59:37.764Z,18.80
2018-04-20T23:02:04.653Z,18.30
2018-04-20T23:04:30.751Z,19.10
2018-04-20T23:06:57.545Z,18.50
2018-04-20T23:09:23.593Z,18.07
2018-04-20T23:11:49.678Z,18.70
2018-04-20T23:14:16.472Z,18.77
2018-04-20T23:16:43.688Z,19.10
2018-04-20T23:19:09.744Z,19.00
2018-04-20T23:21:36.529Z,18.70
2018-04-20T23:24:02.614Z,16.63
2018-04-20T23:26:28.668Z,19.77
2018-04-20T23:28:57.089Z,19.90
2018-04-20T23:31:23.147Z,19.30
2018-04-20T23:33:49.203Z,18.70
2018-04-20T23:36:15.338Z,18.33
2018-04-20T23:38:41.375Z,18.87
2018-04-20T23:41:07.428Z,20.00
2018-04-20T23:43:34.227Z,20.23
2018-04-20T23:46:01.106Z,18.60
2018-04-20T23:48:27.174Z,19.57
2018-04-20T23:50:53.221Z,19.87
2018-04-20T23:53:20.004Z,20.60
2018-04-20T23:55:46.140Z,18.93
2018-04-20T23:58:13.560Z,17.90
